Time;durP1;ratioP1;P1;durP2;ratioP2;P2;SDS_P1;SDS_P2;PMS_P1;PMS_P2;Temp;Humidity;BMP_temperature;BMP_pressure;BME280_temperature;BME280_humidity;BME280_pressure;Samples;Min_cycle;Max_cycle;Signal;HPM_P1;HPM_P2
2023/07/05 00:01:29;;;;;;;5.18;1.80;;;12.60;99.90;;;;;;5014657;28;20038;-79
2023/07/05 00:03:55;;;;;;;4.60;1.63;;;12.60;99.90;;;;;;5014462;28;20358;-82
2023/07/05 00:06:25;;;;;;;4.70;1.80;;;12.60;99.90;;;;;;4996793;28;20054;-82
2023/07/05 00:08:52;;;;;;;4.90;2.00;;;12.60;99.90;;;;;;5014359;28;20041;-83
2023/07/05 00:11:19;;;;;;;5.10;2.05;;;12.50;99.90;;;;;;4974945;28;1090134;-82
2023/07/05 00:13:46;;;;;;;8.05;2.22;;;12.50;99.90;;;;;;5014317;28;20109;-82
2023/07/05 00:16:13;;;;;;;6.22;2.05;;;12.50;99.90;;;;;;4996006;28;20050;-82
2023/07/05 00:18:40;;;;;;;5.20;2.08;;;12.50;99.90;;;;;;5010208;28;20034;-80
2023/07/05 00:21:06;;;;;;;6.25;1.90;;;12.50;99.90;;;;;;5006477;28;20595;-81
2023/07/05 00:23:33;;;;;;;6.15;2.40;;;12.50;99.90;;;;;;5013515;28;20077;-81
2023/07/05 00:26:01;;;;;;;6.32;2.08;;;12.50;99.90;;;;;;5014384;28;20052;-80
2023/07/05 00:28:28;;;;;;;6.18;2.30;;;12.50;99.90;;;;;;5014898;28;20120;-79
2023/07/05 00:30:54;;;;;;;8.45;2.92;;;12.50;99.90;;;;;;5014218;28;20046;-78
2023/07/05 00:33:21;;;;;;;7.63;2.40;;;12.50;99.90;;;;;;5015123;28;20065;-81
2023/07/05 00:35:50;;;;;;;10.05;2.88;;;12.50;99.90;;;;;;5014768;28;20119;-81
2023/07/05 00:38:17;;;;;;;6.53;2.42;;;12.60;99.90;;;;;;5013747;28;20449;-79
2023/07/05 00:40:43;;;;;;;8.85;3.15;;;12.60;99.90;;;;;;5013835;28;20128;-81
2023/07/05 00:43:10;;;;;;;6.85;2.40;;;12.50;99.90;;;;;;5013574;28;20104;-80
2023/07/05 00:45:39;;;;;;;8.55;2.92;;;12.60;99.90;;;;;;5014183;28;20112;-82
2023/07/05 00:48:06;;;;;;;8.55;3.20;;;12.60;99.90;;;;;;5015180;28;20073;-80
2023/07/05 00:50:33;;;;;;;7.63;2.92;;;12.60;99.90;;;;;;5014825;28;20061;-79
2023/07/05 00:52:59;;;;;;;9.02;3.17;;;12.60;99.90;;;;;;5012838;28;20418;-81
2023/07/05 00:55:28;;;;;;;7.72;2.90;;;12.70;99.90;;;;;;5014587;28;20053;-81
2023/07/05 00:57:55;;;;;;;7.78;3.00;;;12.60;99.90;;;;;;5013146;28;20057;-79
2023/07/05 01:00:22;;;;;;;7.60;2.78;;;12.70;99.90;;;;;;5013984;28;20049;-79
2023/07/05 01:02:48;;;;;;;7.28;3.13;;;12.70;99.90;;;;;;5014381;28;20449;-80
2023/07/05 01:05:16;;;;;;;9.15;3.25;;;12.70;99.90;;;;;;5012792;28;20065;-79
2023/07/05 01:07:44;;;;;;;8.02;2.95;;;12.60;99.90;;;;;;5013776;28;20081;-81
2023/07/05 01:10:11;;;;;;;9.13;3.15;;;12.70;99.90;;;;;;5014328;28;20388;-78
2023/07/05 01:12:38;;;;;;;9.95;3.45;;;12.70;99.90;;;;;;4993546;28;20440;-81
2023/07/05 01:15:05;;;;;;;12.95;3.63;;;12.70;99.90;;;;;;4977632;28;20070;-79
2023/07/05 01:17:32;;;;;;;9.63;3.72;;;12.70;99.90;;;;;;4994878;28;20043;-79
2023/07/05 01:19:58;;;;;;;11.65;3.47;;;12.70;99.90;;;;;;4996603;28;20043;-81
2023/07/05 01:22:25;;;;;;;8.45;3.17;;;12.70;99.90;;;;;;4997441;28;20053;-82
2023/07/05 01:27:38;;;;;;;8.48;3.70;;;12.70;99.90;;;;;;4997437;28;20104;-78
2023/07/05 01:30:06;;;;;;;8.85;3.55;;;12.60;99.90;;;;;;4996993;28;20084;-81
2023/07/05 01:32:32;;;;;;;12.38;3.72;;;12.70;99.90;;;;;;4996093;28;20045;-81
2023/07/05 01:35:00;;;;;;;7.88;3.50;;;12.70;99.90;;;;;;4998912;28;20092;-80
2023/07/05 01:37:27;;;;;;;11.95;3.55;;;12.70;99.90;;;;;;5018119;28;20042;-79
2023/07/05 01:39:54;;;;;;;8.65;3.70;;;12.70;99.90;;;;;;4999716;28;20069;-80
2023/07/05 01:42:20;;;;;;;9.68;3.42;;;12.70;99.90;;;;;;5000185;28;20045;-81
2023/07/05 01:44:47;;;;;;;9.73;3.83;;;12.60;99.90;;;;;;4999453;28;20063;-80
2023/07/05 01:47:14;;;;;;;7.60;3.60;;;12.60;99.90;;;;;;5000102;28;20046;-80
2023/07/05 01:49:40;;;;;;;8.80;3.42;;;12.60;99.90;;;;;;5017528;28;20056;-82
2023/07/05 01:52:09;;;;;;;9.00;3.55;;;12.60;99.90;;;;;;5000049;28;20037;-80
2023/07/05 01:54:37;;;;;;;11.70;3.83;;;12.60;99.90;;;;;;5000445;28;20049;-81
2023/07/05 01:57:04;;;;;;;9.32;3.45;;;12.60;99.90;;;;;;5000402;28;20073;-79
2023/07/05 01:59:30;;;;;;;9.43;3.40;;;12.60;99.90;;;;;;5000456;28;20129;-81
2023/07/05 02:01:58;;;;;;;7.03;2.78;;;12.50;99.90;;;;;;5000493;28;20456;-82
2023/07/05 02:04:25;;;;;;;8.70;3.25;;;12.50;99.90;;;;;;4983688;28;20073;-81
2023/07/05 02:06:53;;;;;;;9.57;3.13;;;12.50;99.90;;;;;;4999883;28;20057;-82
2023/07/05 02:09:20;;;;;;;7.15;2.70;;;12.50;99.90;;;;;;5017504;28;20103;-79
2023/07/05 02:11:47;;;;;;;7.85;2.90;;;12.50;99.90;;;;;;5003593;28;20034;-81
2023/07/05 02:14:14;;;;;;;7.90;3.05;;;12.50;99.90;;;;;;4996840;28;20042;-82
2023/07/05 02:16:42;;;;;;;8.95;3.10;;;12.40;99.90;;;;;;4997233;28;20080;-82
2023/07/05 02:19:09;;;;;;;9.23;2.63;;;12.40;99.90;;;;;;4996042;28;20038;-81
2023/07/05 02:21:36;;;;;;;7.75;2.63;;;12.30;99.90;;;;;;5011724;28;20081;-82
2023/07/05 02:24:04;;;;;;;7.25;2.60;;;12.30;99.90;;;;;;4999506;28;20065;-80
2023/07/05 02:26:33;;;;;;;8.73;2.58;;;12.30;99.90;;;;;;4999431;28;20052;-80
2023/07/05 02:28:59;;;;;;;6.60;2.60;;;12.30;99.90;;;;;;4999556;28;20084;-82
2023/07/05 02:31:26;;;;;;;7.43;2.60;;;12.30;99.90;;;;;;4998615;28;20069;-79
2023/07/05 02:33:53;;;;;;;9.98;2.40;;;12.30;99.90;;;;;;4999367;28;20042;-82
2023/07/05 02:38:50;;;;;;;8.43;2.00;;;12.10;99.90;;;;;;4998707;28;20046;-80
2023/07/05 02:41:16;;;;;;;8.07;2.35;;;12.10;99.90;;;;;;5016579;28;20045;-80
2023/07/05 02:43:43;;;;;;;8.77;2.38;;;12.00;99.90;;;;;;4999325;28;20088;-81
2023/07/05 02:46:13;;;;;;;7.00;2.28;;;12.00;99.90;;;;;;4997421;28;20046;-82
2023/07/05 02:48:40;;;;;;;10.98;2.55;;;11.90;99.90;;;;;;4999278;28;20049;-80
2023/07/05 02:51:07;;;;;;;5.57;2.00;;;11.90;99.90;;;;;;4998782;28;20042;-82
2023/07/05 02:53:33;;;;;;;6.93;2.35;;;11.80;99.90;;;;;;5016382;28;20067;-83
2023/07/05 02:58:48;;;;;;;8.10;1.73;;;11.70;99.90;;;;;;5015781;28;20038;-79
2023/07/05 03:01:15;;;;;;;6.10;2.00;;;11.70;99.90;;;;;;5016488;28;20042;-82
2023/07/05 03:03:41;;;;;;;9.48;2.30;;;11.60;99.90;;;;;;5016399;28;20107;-81
2023/07/05 03:06:09;;;;;;;8.52;1.70;;;11.50;99.90;;;;;;4998750;28;20125;-81
2023/07/05 03:08:37;;;;;;;6.45;1.88;;;11.50;99.90;;;;;;4999405;28;20050;-79
2023/07/05 03:11:04;;;;;;;9.93;2.13;;;11.50;99.90;;;;;;5015049;28;20060;-79
2023/07/05 03:13:31;;;;;;;11.80;2.22;;;11.40;99.90;;;;;;4998805;28;20033;-78
2023/07/05 03:16:00;;;;;;;10.10;2.38;;;11.40;99.90;;;;;;4999000;28;20376;-81
2023/07/05 03:18:26;;;;;;;5.53;1.73;;;11.40;99.90;;;;;;4997824;28;20046;-82
2023/07/05 03:20:53;;;;;;;7.88;2.00;;;11.30;99.90;;;;;;5006847;28;20575;-80
2023/07/05 03:23:20;;;;;;;6.20;2.05;;;11.30;99.90;;;;;;4979004;28;20054;-79
2023/07/05 03:25:49;;;;;;;9.43;2.45;;;11.30;99.90;;;;;;4994754;28;20365;-83
2023/07/05 03:28:16;;;;;;;5.18;2.00;;;11.30;99.90;;;;;;4979257;28;20042;-80
2023/07/05 03:30:42;;;;;;;13.43;2.30;;;11.20;99.90;;;;;;4995139;28;20369;-83
2023/07/05 03:33:09;;;;;;;6.20;1.88;;;11.20;99.90;;;;;;4977975;28;20053;-82
2023/07/05 03:35:36;;;;;;;6.22;2.30;;;11.20;99.90;;;;;;4978958;28;20042;-82
2023/07/05 03:38:03;;;;;;;7.20;1.77;;;11.20;99.90;;;;;;4995597;28;20044;-82
2023/07/05 03:40:29;;;;;;;5.40;1.80;;;11.20;99.90;;;;;;4979060;28;20035;-83
2023/07/05 03:42:56;;;;;;;8.57;1.85;;;11.10;99.90;;;;;;4978439;28;20053;-80
2023/07/05 03:48:09;;;;;;;8.15;2.25;;;11.10;99.90;;;;;;4995362;28;20054;-82
2023/07/05 03:50:36;;;;;;;7.35;1.70;;;11.10;99.90;;;;;;4995891;28;20084;-79
2023/07/05 03:53:03;;;;;;;7.25;1.63;;;11.10;99.90;;;;;;4994163;28;20453;-82
2023/07/05 03:55:29;;;;;;;7.35;2.50;;;11.10;99.90;;;;;;4995161;28;20034;-81
2023/07/05 03:57:56;;;;;;;5.35;1.80;;;11.00;99.90;;;;;;4995017;28;20074;-80
2023/07/05 04:00:23;;;;;;;5.53;1.80;;;11.00;99.90;;;;;;4994712;28;20084;-82
2023/07/05 04:02:49;;;;;;;5.90;1.70;;;11.00;99.90;;;;;;4995647;28;20077;-81
2023/07/05 04:05:18;;;;;;;6.95;1.75;;;11.00;99.90;;;;;;4994731;28;20488;-82
2023/07/05 04:07:45;;;;;;;10.80;2.03;;;11.00;99.90;;;;;;4994984;28;20057;-82
2023/07/05 04:10:12;;;;;;;11.10;2.08;;;10.90;99.90;;;;;;4995314;28;20342;-78
2023/07/05 04:12:39;;;;;;;6.38;2.58;;;10.90;99.90;;;;;;4994764;28;20100;-81
2023/07/05 04:15:06;;;;;;;6.97;1.90;;;10.90;99.90;;;;;;4978979;28;20038;-81
2023/07/05 04:17:33;;;;;;;5.53;1.77;;;10.90;99.90;;;;;;4994743;28;20046;-80
2023/07/05 04:20:00;;;;;;;6.20;2.38;;;10.90;99.90;;;;;;4995389;28;20039;-81
2023/07/05 04:22:29;;;;;;;9.15;2.13;;;10.90;99.90;;;;;;4994500;28;20042;-82
2023/07/05 04:24:59;;;;;;;6.95;2.10;;;10.90;99.90;;;;;;4994695;28;20476;-80
2023/07/05 04:27:25;;;;;;;6.10;2.10;;;11.00;99.90;;;;;;4995291;28;20067;-83
2023/07/05 04:29:52;;;;;;;7.32;2.47;;;11.00;99.90;;;;;;4978104;28;20461;-80
2023/07/05 04:32:19;;;;;;;9.50;2.42;;;11.00;99.90;;;;;;4977227;28;20042;-79
2023/07/05 04:34:48;;;;;;;9.98;2.28;;;11.10;99.90;;;;;;4995200;28;20077;-81
2023/07/05 04:37:14;;;;;;;8.07;2.30;;;11.10;99.90;;;;;;4994562;28;20050;-82
2023/07/05 04:39:54;;;;;;;7.50;2.45;;;11.10;99.90;;;;;;4994266;28;20453;-83
2023/07/05 04:42:21;;;;;;;6.90;2.03;;;11.20;99.90;;;;;;4978224;28;20042;-82
2023/07/05 04:44:48;;;;;;;6.75;2.05;;;11.30;99.90;;;;;;4993255;28;20051;-80
2023/07/05 04:47:14;;;;;;;6.65;2.10;;;11.30;99.90;;;;;;4995346;28;20105;-80
2023/07/05 04:49:41;;;;;;;8.30;2.55;;;11.40;99.90;;;;;;4977820;28;20371;-83
2023/07/05 04:52:08;;;;;;;8.63;2.45;;;11.40;99.90;;;;;;4993983;28;20070;-79
2023/07/05 04:54:35;;;;;;;11.93;2.53;;;11.50;99.90;;;;;;4994286;28;20047;-79
2023/07/05 04:57:02;;;;;;;11.60;3.03;;;11.50;99.90;;;;;;4994509;28;20467;-83
2023/07/05 04:59:29;;;;;;;8.73;2.60;;;11.60;99.90;;;;;;4994510;28;20081;-82
2023/07/05 05:01:56;;;;;;;10.60;2.25;;;11.60;99.90;;;;;;4977773;28;20066;-81
2023/07/05 05:04:23;;;;;;;10.50;2.17;;;11.70;99.90;;;;;;4994497;28;20133;-83
2023/07/05 05:06:50;;;;;;;6.68;2.40;;;11.70;99.90;;;;;;4994216;28;20054;-79
2023/07/05 05:09:17;;;;;;;10.98;2.53;;;11.80;99.90;;;;;;4994962;28;20043;-78
2023/07/05 05:11:43;;;;;;;7.43;2.25;;;11.90;99.90;;;;;;4998006;28;20442;-80
2023/07/05 05:14:10;;;;;;;11.23;3.03;;;12.00;99.90;;;;;;5014517;28;20078;-82
2023/07/05 05:19:23;;;;;;;9.55;2.42;;;12.10;99.90;;;;;;4997802;28;20054;-82
2023/07/05 05:21:49;;;;;;;8.13;2.13;;;12.20;99.90;;;;;;5010196;28;20069;-79
2023/07/05 05:24:16;;;;;;;12.98;2.28;;;12.30;99.90;;;;;;4978473;28;20034;-82
2023/07/05 05:26:45;;;;;;;5.63;2.20;;;12.30;99.90;;;;;;4978098;28;20439;-78
2023/07/05 05:29:12;;;;;;;4.95;2.10;;;12.40;99.90;;;;;;4994798;28;20057;-81
2023/07/05 05:31:38;;;;;;;11.98;2.35;;;12.50;99.90;;;;;;5009391;28;20074;-83
2023/07/05 05:34:05;;;;;;;10.82;2.50;;;12.50;99.90;;;;;;4978772;28;20461;-82
2023/07/05 05:36:33;;;;;;;7.85;2.30;;;12.60;99.90;;;;;;4979386;28;20074;-81
2023/07/05 05:38:59;;;;;;;8.32;2.30;;;12.60;99.90;;;;;;4977148;28;20439;-79
2023/07/05 05:41:26;;;;;;;6.30;2.25;;;12.60;99.90;;;;;;4978757;28;20043;-80
2023/07/05 05:43:53;;;;;;;10.68;2.63;;;12.70;99.90;;;;;;4978990;28;20051;-82
2023/07/05 05:46:21;;;;;;;13.38;2.55;;;12.80;99.90;;;;;;4976799;28;20086;-81
2023/07/05 05:48:48;;;;;;;8.10;2.53;;;12.80;99.90;;;;;;4978804;28;20057;-83
2023/07/05 05:51:14;;;;;;;12.40;2.63;;;12.90;99.90;;;;;;4977679;28;20359;-81
2023/07/05 05:53:41;;;;;;;10.80;2.88;;;12.90;99.90;;;;;;4978352;28;20169;-82
2023/07/05 05:56:08;;;;;;;8.10;2.67;;;13.00;99.90;;;;;;5009754;28;20102;-80
2023/07/05 05:58:35;;;;;;;7.00;2.70;;;12.90;99.90;;;;;;4977664;28;20046;-82
2023/07/05 06:01:02;;;;;;;8.60;2.55;;;13.00;99.90;;;;;;4978394;28;20129;-81
2023/07/05 06:03:29;;;;;;;9.18;2.65;;;13.10;99.90;;;;;;4977304;28;20043;-80
2023/07/05 06:05:56;;;;;;;8.27;2.80;;;13.20;99.90;;;;;;4976727;28;20109;-82
2023/07/05 06:08:23;;;;;;;14.40;2.80;;;13.20;99.90;;;;;;5009730;28;20097;-82
2023/07/05 06:10:50;;;;;;;16.42;2.55;;;13.30;99.90;;;;;;4977021;28;20055;-83
2023/07/05 06:13:17;;;;;;;10.10;3.05;;;13.30;99.90;;;;;;4976584;28;20050;-81
2023/07/05 06:18:42;;;;;;;11.57;2.67;;;13.30;99.90;;;;;;4977541;28;20043;-83
2023/07/05 06:21:08;;;;;;;12.52;2.83;;;13.40;99.90;;;;;;5012996;28;20050;-85
2023/07/05 06:23:37;;;;;;;17.08;3.00;;;13.50;99.90;;;;;;4997174;28;20042;-81
2023/07/05 06:26:06;;;;;;;8.38;2.38;;;13.50;99.90;;;;;;4996348;28;20049;-84
2023/07/05 06:28:33;;;;;;;7.63;2.80;;;13.50;99.90;;;;;;4997277;28;20081;-83
2023/07/05 06:31:00;;;;;;;6.53;2.58;;;13.50;99.90;;;;;;4995530;28;20046;-84
2023/07/05 06:33:26;;;;;;;8.35;2.58;;;13.40;99.90;;;;;;5012402;28;20058;-83
2023/07/05 06:38:38;;;;;;;10.75;2.90;;;13.60;99.90;;;;;;4996333;28;20053;-84
2023/07/05 06:41:05;;;;;;;6.93;2.47;;;13.70;99.90;;;;;;4996930;28;20046;-83
2023/07/05 06:43:32;;;;;;;8.25;2.47;;;13.90;99.90;;;;;;5012285;28;20053;-83
2023/07/05 06:46:00;;;;;;;10.00;2.60;;;14.10;99.90;;;;;;4996339;28;20034;-83
2023/07/05 06:48:27;;;;;;;8.88;2.88;;;14.20;99.90;;;;;;5012311;28;20050;-86
2023/07/05 06:50:53;;;;;;;9.57;2.88;;;14.30;99.90;;;;;;5012585;28;20432;-85
2023/07/05 06:53:20;;;;;;;6.90;2.90;;;14.50;99.90;;;;;;5011854;28;20074;-83
2023/07/05 06:55:51;;;;;;;9.18;2.75;;;14.60;99.90;;;;;;5011905;28;20081;-80
2023/07/05 06:58:19;;;;;;;9.90;3.15;;;14.70;99.90;;;;;;4996189;28;20042;-82
2023/07/05 07:00:46;;;;;;;10.02;3.28;;;14.90;99.90;;;;;;4996715;28;20476;-85
2023/07/05 07:03:13;;;;;;;7.45;2.30;;;15.10;99.90;;;;;;4996488;28;20104;-84
2023/07/05 07:05:41;;;;;;;5.95;2.25;;;15.20;99.90;;;;;;4995943;28;20078;-81
2023/07/05 07:08:07;;;;;;;8.93;2.80;;;15.10;99.90;;;;;;5011790;28;20045;-82
2023/07/05 07:10:35;;;;;;;7.50;2.72;;;15.10;99.90;;;;;;4996612;28;20466;-80
2023/07/05 07:13:02;;;;;;;6.95;2.53;;;15.10;99.90;;;;;;4978152;28;20481;-82
2023/07/05 07:15:30;;;;;;;9.05;2.90;;;15.00;99.90;;;;;;4995482;28;20362;-82
2023/07/05 07:17:57;;;;;;;8.40;2.92;;;15.00;99.90;;;;;;4995464;28;20038;-84
2023/07/05 07:20:25;;;;;;;8.30;2.72;;;15.00;99.90;;;;;;4979047;28;20101;-81
2023/07/05 07:22:52;;;;;;;6.90;3.13;;;15.00;99.90;;;;;;4996565;28;20046;-81
2023/07/05 07:25:19;;;;;;;10.93;3.03;;;15.00;99.90;;;;;;4995481;28;20042;-84
2023/07/05 07:27:46;;;;;;;10.73;3.50;;;15.00;99.90;;;;;;4979033;28;20050;-83
2023/07/05 07:30:13;;;;;;;9.13;3.40;;;15.00;99.90;;;;;;4996184;28;20100;-84
2023/07/05 07:32:40;;;;;;;9.55;3.65;;;15.10;99.90;;;;;;4994053;28;20047;-83
2023/07/05 07:35:07;;;;;;;7.50;3.40;;;15.00;99.90;;;;;;4996206;28;20096;-85
2023/07/05 07:37:33;;;;;;;9.05;3.50;;;15.00;99.90;;;;;;4995349;28;20042;-81
2023/07/05 07:40:00;;;;;;;9.15;3.92;;;15.00;99.90;;;;;;4995138;28;20450;-88
2023/07/05 07:42:27;;;;;;;9.13;3.55;;;14.90;99.90;;;;;;4995575;28;20048;-83
2023/07/05 07:47:24;;;;;;;9.25;3.35;;;15.30;99.90;;;;;;4996630;28;20069;-83
2023/07/05 07:49:50;;;;;;;8.23;3.65;;;15.50;99.90;;;;;;4978652;28;20053;-83
2023/07/05 07:52:17;;;;;;;10.00;3.80;;;15.60;99.90;;;;;;4994664;28;20054;-84
2023/07/05 07:54:44;;;;;;;9.45;3.80;;;15.90;99.90;;;;;;4995522;28;20074;-83
2023/07/05 07:57:10;;;;;;;8.48;3.75;;;16.00;99.90;;;;;;4979259;28;20050;-80
2023/07/05 07:59:41;;;;;;;11.88;4.00;;;16.10;99.90;;;;;;4994004;28;20104;-82
2023/07/05 08:02:07;;;;;;;7.78;3.70;;;16.30;99.90;;;;;;4978759;28;20055;-83
2023/07/05 08:04:35;;;;;;;9.93;3.83;;;16.60;99.90;;;;;;4975503;28;20073;-82
2023/07/05 08:07:02;;;;;;;10.45;3.70;;;16.70;99.90;;;;;;4990597;28;20531;-81
2023/07/05 08:09:28;;;;;;;9.43;3.60;;;16.90;99.90;;;;;;4989562;28;20081;-85
2023/07/05 08:11:55;;;;;;;8.32;3.63;;;17.00;99.90;;;;;;4994351;28;20119;-84
2023/07/05 08:14:22;;;;;;;7.93;3.55;;;17.20;99.90;;;;;;4994348;28;20092;-84
2023/07/05 08:16:50;;;;;;;7.55;3.30;;;17.00;99.90;;;;;;4995312;28;20461;-83
2023/07/05 08:19:17;;;;;;;7.72;3.72;;;16.80;99.90;;;;;;4994543;28;20457;-82
2023/07/05 08:21:43;;;;;;;11.77;3.90;;;16.50;99.90;;;;;;4978090;28;20069;-83
2023/07/05 08:24:10;;;;;;;9.20;3.85;;;16.50;99.90;;;;;;4959029;28;20125;-79
2023/07/05 08:26:53;;;;;;;7.82;3.60;;;16.40;99.90;;;;;;4959378;28;20055;-83
2023/07/05 08:29:20;;;;;;;7.75;3.22;;;16.40;99.90;;;;;;4976559;28;20042;-81
2023/07/05 08:31:46;;;;;;;9.98;3.30;;;16.40;99.90;;;;;;4957796;28;20054;-82
2023/07/05 08:34:13;;;;;;;9.55;3.10;;;16.30;99.90;;;;;;4976145;28;20051;-82
2023/07/05 08:36:42;;;;;;;7.32;2.83;;;16.40;99.90;;;;;;4975838;28;20042;-83
2023/07/05 08:39:09;;;;;;;12.30;3.47;;;16.60;99.90;;;;;;4975241;28;20062;-79
2023/07/05 08:41:36;;;;;;;11.57;3.45;;;16.70;99.90;;;;;;4975603;28;20043;-80
2023/07/05 08:44:03;;;;;;;7.53;3.50;;;16.70;99.90;;;;;;4976302;28;20117;-81
2023/07/05 08:46:30;;;;;;;5.95;2.80;;;16.90;99.90;;;;;;4979679;28;20086;-82
2023/07/05 08:48:57;;;;;;;8.52;3.30;;;17.00;99.90;;;;;;4979937;28;20528;-82
2023/07/05 08:51:23;;;;;;;6.53;2.70;;;17.00;99.90;;;;;;4984005;28;20058;-81
2023/07/05 08:53:50;;;;;;;8.10;2.97;;;17.00;99.90;;;;;;4976466;28;20042;-81
2023/07/05 08:56:20;;;;;;;8.15;2.75;;;17.20;99.90;;;;;;4987113;28;20049;-80
2023/07/05 08:58:48;;;;;;;7.18;2.92;;;17.30;99.90;;;;;;4979105;28;20050;-81
2023/07/05 09:01:15;;;;;;;7.85;3.17;;;17.50;99.90;;;;;;4979680;28;20429;-82
2023/07/05 09:03:43;;;;;;;10.20;3.13;;;17.50;99.90;;;;;;4962195;28;20051;-80
2023/07/05 09:06:11;;;;;;;7.32;2.65;;;17.50;99.90;;;;;;4978716;28;20081;-80
2023/07/05 09:08:38;;;;;;;9.30;3.03;;;17.60;99.90;;;;;;4980049;28;20081;-81
2023/07/05 09:11:04;;;;;;;7.13;3.20;;;17.60;99.90;;;;;;4972167;28;20063;-81
2023/07/05 09:13:31;;;;;;;18.98;3.10;;;17.50;99.90;;;;;;4979315;28;20034;-81
2023/07/05 09:16:00;;;;;;;8.07;3.25;;;17.40;99.90;;;;;;4979151;28;20053;-80
2023/07/05 09:18:27;;;;;;;9.02;2.97;;;17.30;99.90;;;;;;4977588;28;20054;-84
2023/07/05 09:20:54;;;;;;;10.00;2.70;;;17.20;99.90;;;;;;4979490;28;20039;-82
2023/07/05 09:23:21;;;;;;;6.57;2.60;;;17.20;99.90;;;;;;4978746;28;20050;-82
2023/07/05 09:25:49;;;;;;;9.25;2.90;;;17.20;99.90;;;;;;4978009;28;20071;-81
2023/07/05 09:28:21;;;;;;;9.73;3.50;;;17.10;99.90;;;;;;4979334;28;20042;-84
2023/07/05 09:30:48;;;;;;;7.13;2.55;;;17.00;99.90;;;;;;4992763;28;20077;-83
2023/07/05 09:33:15;;;;;;;9.20;3.05;;;17.00;99.90;;;;;;4991657;28;20046;-84
2023/07/05 09:35:43;;;;;;;7.50;2.90;;;17.00;99.90;;;;;;4983031;28;20035;-84
2023/07/05 09:38:10;;;;;;;7.53;3.33;;;16.90;99.90;;;;;;4982247;28;20079;-84
2023/07/05 09:40:36;;;;;;;8.65;3.05;;;17.00;99.90;;;;;;4978666;28;20038;-84
2023/07/05 09:43:03;;;;;;;5.78;2.70;;;17.60;99.90;;;;;;4977460;28;20106;-85
2023/07/05 09:45:31;;;;;;;6.40;2.83;;;17.90;99.90;;;;;;4977001;28;20454;-80
2023/07/05 09:47:58;;;;;;;6.22;2.42;;;18.10;99.90;;;;;;4997880;28;20047;-81
2023/07/05 09:50:25;;;;;;;9.88;2.53;;;18.30;99.90;;;;;;4991187;28;20057;-84
2023/07/05 09:52:52;;;;;;;6.57;2.75;;;18.50;99.90;;;;;;4996468;28;20366;-81
2023/07/05 09:55:20;;;;;;;9.35;2.78;;;18.50;99.90;;;;;;4997038;28;20085;-80
2023/07/05 09:57:48;;;;;;;7.88;2.47;;;18.60;99.90;;;;;;4988347;28;20345;-81
2023/07/05 10:00:15;;;;;;;11.90;2.70;;;18.70;99.90;;;;;;5012724;28;20561;-80
2023/07/05 10:02:42;;;;;;;6.93;2.42;;;18.60;99.90;;;;;;4997008;28;20054;-81
2023/07/05 10:07:55;;;;;;;6.15;2.40;;;18.20;99.90;;;;;;4978106;28;20043;-85
2023/07/05 10:10:22;;;;;;;8.15;2.72;;;18.00;99.90;;;;;;4976864;28;20066;-83
2023/07/05 10:12:49;;;;;;;6.75;2.90;;;17.90;99.90;;;;;;4992809;28;20039;-80
2023/07/05 10:15:20;;;;;;;6.28;2.67;;;18.00;99.90;;;;;;4997900;28;20117;-84
2023/07/05 10:17:47;;;;;;;6.57;2.50;;;18.20;99.90;;;;;;4992057;28;20046;-82
2023/07/05 10:20:14;;;;;;;6.93;2.40;;;18.50;99.90;;;;;;4976587;28;20279;-81
2023/07/05 10:22:41;;;;;;;7.50;2.45;;;18.80;99.90;;;;;;4988119;28;20051;-81
2023/07/05 10:25:09;;;;;;;9.65;3.17;;;19.20;99.90;;;;;;4982248;28;20046;-81
2023/07/05 10:27:35;;;;;;;9.73;3.15;;;19.30;99.90;;;;;;4984669;28;20078;-78
2023/07/05 10:30:02;;;;;;;8.48;2.60;;;19.40;99.90;;;;;;4983947;28;20043;-81
2023/07/05 10:32:30;;;;;;;7.13;2.53;;;19.60;99.90;;;;;;4976568;28;20474;-82
2023/07/05 10:37:43;;;;;;;6.10;2.30;;;20.00;99.90;;;;;;4976608;28;20038;-81
2023/07/05 10:40:10;;;;;;;6.60;2.30;;;20.20;99.90;;;;;;4977410;28;20122;-83
2023/07/05 10:42:37;;;;;;;8.48;2.60;;;20.10;99.90;;;;;;4976116;28;20051;-81
2023/07/05 10:45:04;;;;;;;8.25;2.75;;;19.80;99.90;;;;;;4976655;28;20039;-82
2023/07/05 10:47:30;;;;;;;8.02;2.47;;;19.40;99.90;;;;;;4977383;28;20097;-79
2023/07/05 10:49:57;;;;;;;6.90;2.33;;;19.70;99.90;;;;;;4977310;28;20379;-81
2023/07/05 10:52:24;;;;;;;7.70;2.35;;;20.10;99.90;;;;;;4976090;28;20047;-81
2023/07/05 10:54:51;;;;;;;6.05;2.13;;;20.20;99.90;;;;;;4977354;28;20355;-81
2023/07/05 10:57:18;;;;;;;7.20;2.20;;;20.10;99.90;;;;;;4976445;28;20422;-82
2023/07/05 10:59:45;;;;;;;4.95;2.05;;;20.20;99.90;;;;;;4982164;28;20073;-85
2023/07/05 11:02:12;;;;;;;6.85;2.40;;;20.60;99.90;;;;;;4995450;28;20369;-83
2023/07/05 11:04:38;;;;;;;5.00;1.80;;;21.20;99.90;;;;;;4995766;28;20073;-84
2023/07/05 11:07:10;;;;;;;5.07;1.92;;;21.90;99.90;;;;;;4994269;28;20145;-82
2023/07/05 11:09:37;;;;;;;4.43;1.77;;;22.20;99.90;;;;;;4996903;28;20090;-82
2023/07/05 11:12:05;;;;;;;5.80;2.10;;;21.90;99.90;;;;;;4994216;28;20104;-78
2023/07/05 11:14:32;;;;;;;4.88;2.08;;;21.70;99.90;;;;;;4996032;28;20073;-81
2023/07/05 11:19:44;;;;;;;4.80;1.77;;;21.00;99.90;;;;;;4995496;28;20046;-79
2023/07/05 11:22:11;;;;;;;5.57;1.90;;;20.20;99.90;;;;;;4976467;28;20066;-80
2023/07/05 11:24:38;;;;;;;5.03;1.88;;;19.90;99.90;;;;;;4975708;28;20089;-83
2023/07/05 11:27:04;;;;;;;5.22;2.03;;;19.60;99.90;;;;;;4976721;28;20085;-80
2023/07/05 11:29:31;;;;;;;5.78;2.10;;;19.20;99.90;;;;;;4976398;28;20101;-80
2023/07/05 11:31:58;;;;;;;9.10;2.17;;;19.30;99.90;;;;;;4975657;28;20077;-79
2023/07/05 11:34:25;;;;;;;4.38;1.80;;;19.60;99.90;;;;;;4976743;28;20038;-79
2023/07/05 11:36:53;;;;;;;3.60;1.50;;;19.90;99.90;;;;;;4975949;28;20061;-80
2023/07/05 11:39:21;;;;;;;4.50;1.63;;;21.20;99.90;;;;;;4975590;28;20038;-81
2023/07/05 11:41:47;;;;;;;5.55;1.70;;;21.90;99.90;;;;;;4981204;28;20065;-81
2023/07/05 11:44:14;;;;;;;5.90;1.50;;;22.90;99.90;;;;;;4980579;28;20050;-80
2023/07/05 11:46:43;;;;;;;4.72;1.60;;;23.20;99.90;;;;;;4977823;28;20426;-79
2023/07/05 11:49:10;;;;;;;4.85;1.65;;;23.60;99.90;;;;;;4979070;28;20046;-80
2023/07/05 11:51:36;;;;;;;5.05;1.50;;;24.10;99.90;;;;;;4986260;28;20121;-83
2023/07/05 11:54:04;;;;;;;5.75;1.73;;;23.90;99.90;;;;;;4994201;28;20039;-81
2023/07/05 11:56:31;;;;;;;4.90;1.88;;;24.40;99.90;;;;;;4995497;28;20092;-81
2023/07/05 11:58:57;;;;;;;4.68;1.70;;;24.50;99.90;;;;;;4979684;28;20034;-81
2023/07/05 12:01:24;;;;;;;3.85;1.48;;;24.60;99.90;;;;;;4972866;28;20100;-82
2023/07/05 12:03:51;;;;;;;6.78;1.48;;;24.70;99.90;;;;;;4975996;28;20051;-80
2023/07/05 12:06:19;;;;;;;4.25;1.80;;;24.60;99.90;;;;;;4977216;28;20045;-81
2023/07/05 12:08:46;;;;;;;4.20;1.50;;;24.50;99.90;;;;;;4963902;28;20461;-80
2023/07/05 12:11:12;;;;;;;4.20;1.60;;;24.70;99.90;;;;;;4976157;28;20050;-81
2023/07/05 12:13:39;;;;;;;8.18;1.80;;;24.80;99.90;;;;;;4995093;28;20043;-82
2023/07/05 12:16:06;;;;;;;5.68;1.80;;;25.20;99.90;;;;;;4995446;28;20050;-82
2023/07/05 12:18:33;;;;;;;5.03;1.98;;;25.20;99.90;;;;;;4994408;28;20034;-82
2023/07/05 12:21:00;;;;;;;4.78;1.80;;;24.60;99.90;;;;;;4993287;28;20069;-84
2023/07/05 12:23:29;;;;;;;6.85;1.92;;;23.90;99.90;;;;;;4995058;28;20043;-84
2023/07/05 12:25:56;;;;;;;3.92;1.70;;;22.90;99.90;;;;;;4994094;28;20046;-82
2023/07/05 12:28:23;;;;;;;4.05;1.60;;;22.30;99.90;;;;;;4994263;28;20061;-80
2023/07/05 12:30:50;;;;;;;4.57;1.83;;;21.50;99.90;;;;;;5010136;28;20092;-81
2023/07/05 12:33:18;;;;;;;9.02;1.88;;;20.70;99.90;;;;;;5009342;28;20078;-81
2023/07/05 12:35:46;;;;;;;3.95;1.38;;;20.10;99.90;;;;;;4994856;28;20417;-82
2023/07/05 12:38:13;;;;;;;4.35;1.45;;;19.30;99.90;;;;;;5003915;28;20042;-80
2023/07/05 12:40:40;;;;;;;7.28;1.70;;;18.30;99.90;;;;;;4974596;28;20073;-80
2023/07/05 12:43:09;;;;;;;8.48;1.75;;;18.00;99.90;;;;;;4985515;28;20369;-80
2023/07/05 12:45:38;;;;;;;5.15;1.30;;;17.90;99.90;;;;;;4989220;28;20129;-79
2023/07/05 12:48:05;;;;;;;3.83;1.40;;;17.80;99.90;;;;;;4995062;28;20042;-81
2023/07/05 12:50:32;;;;;;;4.00;1.40;;;17.80;99.90;;;;;;4994299;28;20085;-81
2023/07/05 12:52:59;;;;;;;5.03;1.58;;;18.70;99.90;;;;;;5007907;28;20047;-82
2023/07/05 12:55:26;;;;;;;6.10;1.48;;;19.80;99.90;;;;;;5010204;28;20049;-80
2023/07/05 12:57:54;;;;;;;3.78;1.30;;;20.50;99.90;;;;;;4993944;28;20049;-79
2023/07/05 13:00:20;;;;;;;3.97;1.30;;;20.70;99.90;;;;;;4995019;28;20465;-79
2023/07/05 13:02:47;;;;;;;4.75;1.52;;;21.10;99.90;;;;;;4993536;28;20053;-81
2023/07/05 13:05:17;;;;;;;4.72;1.10;;;21.20;99.90;;;;;;4983087;28;20162;-80
2023/07/05 13:07:44;;;;;;;3.53;1.30;;;20.90;99.90;;;;;;4992259;28;20421;-79
2023/07/05 13:10:11;;;;;;;5.65;1.55;;;20.50;99.90;;;;;;4994753;28;20089;-81
2023/07/05 13:12:38;;;;;;;5.90;1.40;;;20.30;99.90;;;;;;4992543;28;20050;-83
2023/07/05 13:15:05;;;;;;;4.07;1.50;;;20.20;99.90;;;;;;4994352;28;20093;-80